Terminal Aerodrome Forecast
Issued by NWS Grand Forks, ND

Home | Current Version | Previous Version | Text Only | Print | Product List | Glossary On
Versions: 1 2 3 4 5 6 7 8 9 10 11 12 13 14 15 16 17 18 19 20 21 22 23
000
FTUS43 KFGF 230600 AAA
TAFFAR
TAF AMD
KFAR 230617Z 2306/2406 36010KT P6SM OVC015
      TEMPO 2306/2310 4SM BR OVC008
     FM231400 05007KT P6SM OVC015=

USA.gov is the U.S. government's official web portal to all federal, state and local government web resources and services.